sensor_id;sensor_type;location;lat;lon;timestamp;P1;durP1;ratioP1;P2;durP2;ratioP2
72406;SDS011;60396;47.550;18.828;2022-10-12T00:00:04;20.85;;;12.18;;
72406;SDS011;60396;47.550;18.828;2022-10-12T00:02:38;24.60;;;12.65;;
72406;SDS011;60396;47.550;18.828;2022-10-12T00:05:07;18.52;;;11.45;;
72406;SDS011;60396;47.550;18.828;2022-10-12T00:07:35;20.25;;;12.27;;
72406;SDS011;60396;47.550;18.828;2022-10-12T00:10:03;19.77;;;11.87;;
72406;SDS011;60396;47.550;18.828;2022-10-12T00:12:30;20.33;;;12.50;;
72406;SDS011;60396;47.550;18.828;2022-10-12T00:14:58;21.58;;;12.40;;
72406;SDS011;60396;47.550;18.828;2022-10-12T00:17:25;22.27;;;12.23;;
72406;SDS011;60396;47.550;18.828;2022-10-12T00:19:54;22.45;;;12.52;;
72406;SDS011;60396;47.550;18.828;2022-10-12T00:22:21;19.47;;;11.67;;
72406;SDS011;60396;47.550;18.828;2022-10-12T00:24:48;22.62;;;12.88;;
72406;SDS011;60396;47.550;18.828;2022-10-12T00:27:16;23.10;;;12.55;;
72406;SDS011;60396;47.550;18.828;2022-10-12T00:29:44;21.10;;;12.52;;
72406;SDS011;60396;47.550;18.828;2022-10-12T00:32:11;22.30;;;12.95;;
72406;SDS011;60396;47.550;18.828;2022-10-12T00:34:39;19.90;;;11.60;;
72406;SDS011;60396;47.550;18.828;2022-10-12T00:37:06;23.42;;;11.68;;
72406;SDS011;60396;47.550;18.828;2022-10-12T00:39:34;19.92;;;10.73;;
72406;SDS011;60396;47.550;18.828;2022-10-12T00:42:02;22.42;;;12.23;;
72406;SDS011;60396;47.550;18.828;2022-10-12T00:44:40;20.17;;;11.75;;
72406;SDS011;60396;47.550;18.828;2022-10-12T00:47:13;18.53;;;11.70;;
72406;SDS011;60396;47.550;18.828;2022-10-12T00:50:05;21.20;;;11.35;;
72406;SDS011;60396;47.550;18.828;2022-10-12T00:52:39;25.45;;;11.80;;
72406;SDS011;60396;47.550;18.828;2022-10-12T00:55:13;18.67;;;10.40;;
72406;SDS011;60396;47.550;18.828;2022-10-12T00:57:42;21.02;;;11.20;;
72406;SDS011;60396;47.550;18.828;2022-10-12T01:00:13;23.50;;;11.63;;
72406;SDS011;60396;47.550;18.828;2022-10-12T01:02:41;18.77;;;10.10;;
72406;SDS011;60396;47.550;18.828;2022-10-12T01:05:10;20.17;;;10.40;;
72406;SDS011;60396;47.550;18.828;2022-10-12T01:07:38;22.05;;;10.95;;
72406;SDS011;60396;47.550;18.828;2022-10-12T01:10:06;19.65;;;11.23;;
72406;SDS011;60396;47.550;18.828;2022-10-12T01:12:34;19.50;;;10.60;;
72406;SDS011;60396;47.550;18.828;2022-10-12T01:15:02;18.62;;;10.82;;
72406;SDS011;60396;47.550;18.828;2022-10-12T01:23:20;22.25;;;10.50;;
72406;SDS011;60396;47.550;18.828;2022-10-12T01:37:04;20.88;;;10.57;;
72406;SDS011;60396;47.550;18.828;2022-10-12T01:39:54;19.17;;;10.70;;
72406;SDS011;60396;47.550;18.828;2022-10-12T01:42:25;24.42;;;10.10;;
72406;SDS011;60396;47.550;18.828;2022-10-12T01:45:15;19.77;;;10.75;;
72406;SDS011;60396;47.550;18.828;2022-10-12T01:47:45;20.77;;;11.43;;
72406;SDS011;60396;47.550;18.828;2022-10-12T01:50:14;17.45;;;10.93;;
72406;SDS011;60396;47.550;18.828;2022-10-12T02:00:54;22.35;;;11.38;;
72406;SDS011;60396;47.550;18.828;2022-10-12T02:03:50;18.50;;;10.88;;
72406;SDS011;60396;47.550;18.828;2022-10-12T02:06:26;22.83;;;12.00;;
72406;SDS011;60396;47.550;18.828;2022-10-12T02:09:04;20.23;;;10.85;;
72406;SDS011;60396;47.550;18.828;2022-10-12T02:11:37;19.85;;;11.12;;
72406;SDS011;60396;47.550;18.828;2022-10-12T02:14:08;20.23;;;11.85;;
72406;SDS011;60396;47.550;18.828;2022-10-12T02:16:46;22.25;;;12.15;;
72406;SDS011;60396;47.550;18.828;2022-10-12T02:19:18;22.87;;;11.57;;
72406;SDS011;60396;47.550;18.828;2022-10-12T02:21:49;23.17;;;12.35;;
72406;SDS011;60396;47.550;18.828;2022-10-12T02:24:20;20.67;;;11.60;;
72406;SDS011;60396;47.550;18.828;2022-10-12T02:26:49;23.62;;;12.10;;
72406;SDS011;60396;47.550;18.828;2022-10-12T02:29:21;23.08;;;12.02;;
72406;SDS011;60396;47.550;18.828;2022-10-12T02:34:22;20.23;;;11.95;;
72406;SDS011;60396;47.550;18.828;2022-10-12T02:39:39;22.17;;;11.38;;
72406;SDS011;60396;47.550;18.828;2022-10-12T02:42:11;22.92;;;11.98;;
72406;SDS011;60396;47.550;18.828;2022-10-12T02:44:42;21.67;;;11.47;;
72406;SDS011;60396;47.550;18.828;2022-10-12T02:47:11;20.05;;;11.80;;
72406;SDS011;60396;47.550;18.828;2022-10-12T02:49:39;23.12;;;11.68;;
72406;SDS011;60396;47.550;18.828;2022-10-12T02:52:07;24.63;;;11.73;;
72406;SDS011;60396;47.550;18.828;2022-10-12T02:54:35;20.35;;;11.85;;
72406;SDS011;60396;47.550;18.828;2022-10-12T02:57:03;22.13;;;12.63;;
72406;SDS011;60396;47.550;18.828;2022-10-12T02:59:30;24.45;;;12.00;;
72406;SDS011;60396;47.550;18.828;2022-10-12T03:01:58;21.45;;;12.15;;
72406;SDS011;60396;47.550;18.828;2022-10-12T03:04:25;23.20;;;13.48;;
72406;SDS011;60396;47.550;18.828;2022-10-12T03:06:53;19.58;;;12.35;;
72406;SDS011;60396;47.550;18.828;2022-10-12T03:09:20;28.07;;;12.97;;
72406;SDS011;60396;47.550;18.828;2022-10-12T03:11:48;21.60;;;12.95;;
72406;SDS011;60396;47.550;18.828;2022-10-12T03:14:16;21.73;;;13.50;;
72406;SDS011;60396;47.550;18.828;2022-10-12T03:16:43;20.65;;;12.48;;
72406;SDS011;60396;47.550;18.828;2022-10-12T03:19:12;20.55;;;12.35;;
72406;SDS011;60396;47.550;18.828;2022-10-12T03:21:40;21.30;;;11.93;;
72406;SDS011;60396;47.550;18.828;2022-10-12T03:24:08;20.90;;;12.05;;
72406;SDS011;60396;47.550;18.828;2022-10-12T03:26:35;24.73;;;12.07;;
72406;SDS011;60396;47.550;18.828;2022-10-12T03:29:03;20.65;;;12.23;;
72406;SDS011;60396;47.550;18.828;2022-10-12T03:31:30;25.65;;;12.25;;
72406;SDS011;60396;47.550;18.828;2022-10-12T03:33:58;20.13;;;11.83;;
72406;SDS011;60396;47.550;18.828;2022-10-12T03:36:26;19.95;;;12.02;;
72406;SDS011;60396;47.550;18.828;2022-10-12T03:38:53;21.08;;;11.35;;
72406;SDS011;60396;47.550;18.828;2022-10-12T03:41:20;21.17;;;12.85;;
72406;SDS011;60396;47.550;18.828;2022-10-12T03:43:48;23.65;;;12.55;;
72406;SDS011;60396;47.550;18.828;2022-10-12T03:46:16;20.93;;;11.97;;
72406;SDS011;60396;47.550;18.828;2022-10-12T03:48:44;21.30;;;12.25;;
72406;SDS011;60396;47.550;18.828;2022-10-12T03:51:11;21.37;;;12.65;;
72406;SDS011;60396;47.550;18.828;2022-10-12T03:53:39;19.83;;;12.15;;
72406;SDS011;60396;47.550;18.828;2022-10-12T03:56:12;22.73;;;12.35;;
72406;SDS011;60396;47.550;18.828;2022-10-12T03:58:39;21.03;;;12.30;;
72406;SDS011;60396;47.550;18.828;2022-10-12T04:01:06;21.10;;;12.37;;
72406;SDS011;60396;47.550;18.828;2022-10-12T04:03:34;22.45;;;12.80;;
72406;SDS011;60396;47.550;18.828;2022-10-12T04:06:02;23.00;;;12.63;;
72406;SDS011;60396;47.550;18.828;2022-10-12T04:08:30;24.95;;;12.23;;
72406;SDS011;60396;47.550;18.828;2022-10-12T04:10:57;22.70;;;12.00;;
72406;SDS011;60396;47.550;18.828;2022-10-12T04:13:25;23.60;;;12.82;;
72406;SDS011;60396;47.550;18.828;2022-10-12T04:15:52;24.67;;;13.20;;
72406;SDS011;60396;47.550;18.828;2022-10-12T04:18:20;23.90;;;12.43;;
72406;SDS011;60396;47.550;18.828;2022-10-12T04:20:48;19.83;;;12.23;;
72406;SDS011;60396;47.550;18.828;2022-10-12T04:23:15;21.17;;;11.63;;
72406;SDS011;60396;47.550;18.828;2022-10-12T04:25:44;19.15;;;11.45;;
72406;SDS011;60396;47.550;18.828;2022-10-12T04:28:11;21.45;;;11.52;;
72406;SDS011;60396;47.550;18.828;2022-10-12T04:30:39;22.85;;;12.77;;
72406;SDS011;60396;47.550;18.828;2022-10-12T04:33:06;24.48;;;14.07;;
72406;SDS011;60396;47.550;18.828;2022-10-12T04:35:34;25.23;;;14.30;;
72406;SDS011;60396;47.550;18.828;2022-10-12T04:38:01;22.87;;;14.18;;
72406;SDS011;60396;47.550;18.828;2022-10-12T04:40:29;22.60;;;13.90;;
72406;SDS011;60396;47.550;18.828;2022-10-12T04:42:57;26.12;;;13.70;;
72406;SDS011;60396;47.550;18.828;2022-10-12T04:45:24;26.12;;;14.55;;
72406;SDS011;60396;47.550;18.828;2022-10-12T04:47:52;28.87;;;14.37;;
72406;SDS011;60396;47.550;18.828;2022-10-12T04:50:19;27.27;;;13.25;;
72406;SDS011;60396;47.550;18.828;2022-10-12T04:52:52;22.73;;;13.10;;
72406;SDS011;60396;47.550;18.828;2022-10-12T04:55:20;25.58;;;12.60;;
72406;SDS011;60396;47.550;18.828;2022-10-12T04:57:47;24.02;;;13.00;;
72406;SDS011;60396;47.550;18.828;2022-10-12T05:00:16;28.27;;;13.23;;
72406;SDS011;60396;47.550;18.828;2022-10-12T05:02:44;25.52;;;12.77;;
72406;SDS011;60396;47.550;18.828;2022-10-12T05:05:11;22.25;;;12.30;;
72406;SDS011;60396;47.550;18.828;2022-10-12T05:07:39;23.00;;;12.93;;
72406;SDS011;60396;47.550;18.828;2022-10-12T05:10:07;24.23;;;12.48;;
72406;SDS011;60396;47.550;18.828;2022-10-12T05:12:35;22.23;;;11.97;;
72406;SDS011;60396;47.550;18.828;2022-10-12T05:15:03;24.55;;;11.77;;
72406;SDS011;60396;47.550;18.828;2022-10-12T05:17:31;19.95;;;12.02;;
72406;SDS011;60396;47.550;18.828;2022-10-12T05:19:58;21.58;;;11.65;;
72406;SDS011;60396;47.550;18.828;2022-10-12T05:22:26;21.87;;;11.50;;
72406;SDS011;60396;47.550;18.828;2022-10-12T05:24:53;20.07;;;11.83;;
72406;SDS011;60396;47.550;18.828;2022-10-12T05:27:21;20.40;;;10.85;;
72406;SDS011;60396;47.550;18.828;2022-10-12T05:29:49;21.05;;;11.90;;
72406;SDS011;60396;47.550;18.828;2022-10-12T05:32:17;19.73;;;10.93;;
72406;SDS011;60396;47.550;18.828;2022-10-12T05:34:44;19.42;;;12.13;;
72406;SDS011;60396;47.550;18.828;2022-10-12T05:37:12;21.60;;;11.17;;
72406;SDS011;60396;47.550;18.828;2022-10-12T05:39:41;19.08;;;11.07;;
72406;SDS011;60396;47.550;18.828;2022-10-12T05:42:08;21.45;;;10.82;;
72406;SDS011;60396;47.550;18.828;2022-10-12T05:44:36;17.33;;;10.60;;
72406;SDS011;60396;47.550;18.828;2022-10-12T05:47:03;29.95;;;11.48;;
72406;SDS011;60396;47.550;18.828;2022-10-12T05:49:31;31.77;;;11.53;;
72406;SDS011;60396;47.550;18.828;2022-10-12T05:51:59;28.35;;;11.45;;
72406;SDS011;60396;47.550;18.828;2022-10-12T05:54:26;28.30;;;11.65;;
72406;SDS011;60396;47.550;18.828;2022-10-12T05:56:54;26.10;;;12.13;;
72406;SDS011;60396;47.550;18.828;2022-10-12T05:59:22;25.17;;;11.88;;
72406;SDS011;60396;47.550;18.828;2022-10-12T06:01:49;24.50;;;12.03;;
72406;SDS011;60396;47.550;18.828;2022-10-12T06:04:17;32.38;;;13.95;;
72406;SDS011;60396;47.550;18.828;2022-10-12T06:06:45;26.17;;;12.95;;
72406;SDS011;60396;47.550;18.828;2022-10-12T06:09:12;24.25;;;13.75;;
72406;SDS011;60396;47.550;18.828;2022-10-12T06:11:40;28.92;;;14.55;;
72406;SDS011;60396;47.550;18.828;2022-10-12T06:14:08;25.50;;;13.37;;
72406;SDS011;60396;47.550;18.828;2022-10-12T06:16:35;26.40;;;13.93;;
72406;SDS011;60396;47.550;18.828;2022-10-12T06:19:03;26.95;;;13.13;;
72406;SDS011;60396;47.550;18.828;2022-10-12T06:21:30;28.77;;;14.15;;
72406;SDS011;60396;47.550;18.828;2022-10-12T06:24:00;33.80;;;16.67;;
72406;SDS011;60396;47.550;18.828;2022-10-12T06:26:28;26.87;;;15.37;;
72406;SDS011;60396;47.550;18.828;2022-10-12T06:28:56;27.05;;;16.00;;
72406;SDS011;60396;47.550;18.828;2022-10-12T06:31:23;31.85;;;16.25;;
72406;SDS011;60396;47.550;18.828;2022-10-12T06:33:51;35.25;;;17.02;;
72406;SDS011;60396;47.550;18.828;2022-10-12T06:36:20;34.05;;;15.98;;
72406;SDS011;60396;47.550;18.828;2022-10-12T06:38:47;26.37;;;17.03;;
72406;SDS011;60396;47.550;18.828;2022-10-12T06:41:15;28.80;;;16.58;;
72406;SDS011;60396;47.550;18.828;2022-10-12T06:43:42;27.73;;;15.85;;
72406;SDS011;60396;47.550;18.828;2022-10-12T06:46:10;33.92;;;16.98;;
72406;SDS011;60396;47.550;18.828;2022-10-12T06:48:38;33.35;;;16.73;;
72406;SDS011;60396;47.550;18.828;2022-10-12T06:51:05;30.03;;;15.97;;
72406;SDS011;60396;47.550;18.828;2022-10-12T06:53:33;36.35;;;18.62;;
72406;SDS011;60396;47.550;18.828;2022-10-12T06:56:05;30.33;;;18.12;;
72406;SDS011;60396;47.550;18.828;2022-10-12T06:58:35;33.30;;;19.17;;
72406;SDS011;60396;47.550;18.828;2022-10-12T07:01:06;38.60;;;20.30;;
72406;SDS011;60396;47.550;18.828;2022-10-12T07:03:36;38.87;;;19.60;;
72406;SDS011;60396;47.550;18.828;2022-10-12T07:06:05;36.85;;;20.33;;
72406;SDS011;60396;47.550;18.828;2022-10-12T07:08:33;35.92;;;18.45;;
72406;SDS011;60396;47.550;18.828;2022-10-12T07:11:02;32.60;;;17.60;;
72406;SDS011;60396;47.550;18.828;2022-10-12T07:13:30;33.30;;;17.33;;
72406;SDS011;60396;47.550;18.828;2022-10-12T07:15:58;32.93;;;17.13;;
72406;SDS011;60396;47.550;18.828;2022-10-12T07:18:26;33.03;;;16.85;;
72406;SDS011;60396;47.550;18.828;2022-10-12T07:20:57;28.02;;;16.42;;
72406;SDS011;60396;47.550;18.828;2022-10-12T07:23:26;31.05;;;17.58;;
72406;SDS011;60396;47.550;18.828;2022-10-12T07:25:53;31.33;;;17.25;;
72406;SDS011;60396;47.550;18.828;2022-10-12T07:28:21;27.57;;;15.83;;
72406;SDS011;60396;47.550;18.828;2022-10-12T07:30:49;32.03;;;15.75;;
72406;SDS011;60396;47.550;18.828;2022-10-12T07:33:16;36.22;;;16.10;;
72406;SDS011;60396;47.550;18.828;2022-10-12T07:35:51;33.45;;;15.80;;
72406;SDS011;60396;47.550;18.828;2022-10-12T07:38:40;25.50;;;16.12;;
72406;SDS011;60396;47.550;18.828;2022-10-12T07:41:11;28.57;;;15.67;;
72406;SDS011;60396;47.550;18.828;2022-10-12T07:43:38;26.00;;;14.63;;
72406;SDS011;60396;47.550;18.828;2022-10-12T07:46:06;31.10;;;16.80;;
72406;SDS011;60396;47.550;18.828;2022-10-12T07:48:34;34.05;;;16.98;;
72406;SDS011;60396;47.550;18.828;2022-10-12T07:51:07;32.03;;;15.88;;
72406;SDS011;60396;47.550;18.828;2022-10-12T07:53:37;30.37;;;16.13;;
72406;SDS011;60396;47.550;18.828;2022-10-12T07:56:05;27.40;;;16.70;;
72406;SDS011;60396;47.550;18.828;2022-10-12T07:58:35;26.40;;;16.33;;
72406;SDS011;60396;47.550;18.828;2022-10-12T08:01:04;34.80;;;16.35;;
72406;SDS011;60396;47.550;18.828;2022-10-12T08:03:32;32.70;;;16.90;;
72406;SDS011;60396;47.550;18.828;2022-10-12T08:06:06;30.40;;;16.63;;
72406;SDS011;60396;47.550;18.828;2022-10-12T08:08:37;30.58;;;16.70;;
72406;SDS011;60396;47.550;18.828;2022-10-12T08:11:04;30.00;;;16.37;;
72406;SDS011;60396;47.550;18.828;2022-10-12T08:13:32;31.95;;;15.93;;
72406;SDS011;60396;47.550;18.828;2022-10-12T08:16:00;32.90;;;17.10;;
72406;SDS011;60396;47.550;18.828;2022-10-12T08:18:29;29.47;;;16.37;;
72406;SDS011;60396;47.550;18.828;2022-10-12T08:20:57;30.15;;;15.60;;
72406;SDS011;60396;47.550;18.828;2022-10-12T08:23:24;30.37;;;16.20;;
72406;SDS011;60396;47.550;18.828;2022-10-12T08:25:52;30.65;;;16.40;;
72406;SDS011;60396;47.550;18.828;2022-10-12T08:28:21;27.27;;;15.23;;
72406;SDS011;60396;47.550;18.828;2022-10-12T08:30:50;36.80;;;15.27;;
72406;SDS011;60396;47.550;18.828;2022-10-12T08:33:17;27.10;;;15.23;;
72406;SDS011;60396;47.550;18.828;2022-10-12T08:35:46;28.15;;;14.65;;
72406;SDS011;60396;47.550;18.828;2022-10-12T08:38:14;29.10;;;15.80;;
72406;SDS011;60396;47.550;18.828;2022-10-12T08:40:52;33.47;;;15.73;;
72406;SDS011;60396;47.550;18.828;2022-10-12T08:46:12;26.45;;;14.52;;
72406;SDS011;60396;47.550;18.828;2022-10-12T08:51:09;27.23;;;14.75;;
72406;SDS011;60396;47.550;18.828;2022-10-12T08:53:47;29.63;;;15.90;;
72406;SDS011;60396;47.550;18.828;2022-10-12T08:56:18;27.37;;;14.60;;
72406;SDS011;60396;47.550;18.828;2022-10-12T08:58:47;25.52;;;15.48;;
72406;SDS011;60396;47.550;18.828;2022-10-12T09:01:20;26.12;;;13.98;;
72406;SDS011;60396;47.550;18.828;2022-10-12T09:09:36;21.77;;;11.40;;
72406;SDS011;60396;47.550;18.828;2022-10-12T09:15:11;22.50;;;10.82;;
72406;SDS011;60396;47.550;18.828;2022-10-12T09:18:00;21.62;;;10.10;;
72406;SDS011;60396;47.550;18.828;2022-10-12T09:20:30;18.80;;;9.93;;
72406;SDS011;60396;47.550;18.828;2022-10-12T09:23:44;15.30;;;9.67;;
72406;SDS011;60396;47.550;18.828;2022-10-12T09:25:53;23.30;;;10.65;;
72406;SDS011;60396;47.550;18.828;2022-10-12T09:28:26;17.17;;;8.95;;
72406;SDS011;60396;47.550;18.828;2022-10-12T09:33:31;19.95;;;9.68;;
72406;SDS011;60396;47.550;18.828;2022-10-12T09:36:08;19.27;;;8.93;;
72406;SDS011;60396;47.550;18.828;2022-10-12T09:38:36;16.98;;;8.57;;
72406;SDS011;60396;47.550;18.828;2022-10-12T09:41:04;16.73;;;7.72;;
72406;SDS011;60396;47.550;18.828;2022-10-12T09:43:31;17.23;;;7.80;;
72406;SDS011;60396;47.550;18.828;2022-10-12T09:45:59;19.42;;;8.02;;
72406;SDS011;60396;47.550;18.828;2022-10-12T09:48:27;16.13;;;8.10;;
72406;SDS011;60396;47.550;18.828;2022-10-12T09:50:56;20.65;;;7.40;;
72406;SDS011;60396;47.550;18.828;2022-10-12T09:53:32;24.52;;;7.87;;
72406;SDS011;60396;47.550;18.828;2022-10-12T09:56:03;15.70;;;8.35;;
72406;SDS011;60396;47.550;18.828;2022-10-12T09:58:41;17.75;;;8.00;;
72406;SDS011;60396;47.550;18.828;2022-10-12T10:01:23;17.40;;;8.10;;
72406;SDS011;60396;47.550;18.828;2022-10-12T10:04:07;19.15;;;8.55;;
72406;SDS011;60396;47.550;18.828;2022-10-12T10:06:35;22.30;;;10.20;;
72406;SDS011;60396;47.550;18.828;2022-10-12T10:09:04;21.33;;;9.00;;
72406;SDS011;60396;47.550;18.828;2022-10-12T10:11:32;18.98;;;8.63;;
72406;SDS011;60396;47.550;18.828;2022-10-12T10:13:59;18.43;;;8.30;;
72406;SDS011;60396;47.550;18.828;2022-10-12T10:16:28;17.85;;;8.95;;
72406;SDS011;60396;47.550;18.828;2022-10-12T10:18:57;19.42;;;9.73;;
72406;SDS011;60396;47.550;18.828;2022-10-12T10:21:33;17.05;;;8.95;;
72406;SDS011;60396;47.550;18.828;2022-10-12T10:26:30;21.00;;;9.00;;
72406;SDS011;60396;47.550;18.828;2022-10-12T10:32:17;17.80;;;9.57;;
72406;SDS011;60396;47.550;18.828;2022-10-12T10:35:16;24.40;;;9.27;;
72406;SDS011;60396;47.550;18.828;2022-10-12T10:37:45;21.45;;;9.55;;
72406;SDS011;60396;47.550;18.828;2022-10-12T10:40:17;19.07;;;9.77;;
72406;SDS011;60396;47.550;18.828;2022-10-12T10:42:54;23.20;;;9.55;;
72406;SDS011;60396;47.550;18.828;2022-10-12T10:45:28;25.83;;;9.98;;
72406;SDS011;60396;47.550;18.828;2022-10-12T10:48:04;20.20;;;9.40;;
72406;SDS011;60396;47.550;18.828;2022-10-12T10:50:34;21.00;;;9.40;;
72406;SDS011;60396;47.550;18.828;2022-10-12T10:53:13;19.40;;;9.63;;
72406;SDS011;60396;47.550;18.828;2022-10-12T11:01:00;20.35;;;9.00;;
72406;SDS011;60396;47.550;18.828;2022-10-12T11:03:33;18.77;;;9.05;;
72406;SDS011;60396;47.550;18.828;2022-10-12T11:09:08;18.37;;;8.27;;
72406;SDS011;60396;47.550;18.828;2022-10-12T11:11:38;17.42;;;9.00;;
72406;SDS011;60396;47.550;18.828;2022-10-12T11:14:10;18.15;;;8.43;;
72406;SDS011;60396;47.550;18.828;2022-10-12T11:16:49;22.27;;;8.70;;
72406;SDS011;60396;47.550;18.828;2022-10-12T11:21:54;19.50;;;8.38;;
72406;SDS011;60396;47.550;18.828;2022-10-12T11:24:28;17.83;;;8.40;;
72406;SDS011;60396;47.550;18.828;2022-10-12T11:27:09;15.70;;;8.50;;
72406;SDS011;60396;47.550;18.828;2022-10-12T11:29:43;16.80;;;8.27;;
72406;SDS011;60396;47.550;18.828;2022-10-12T11:32:21;15.00;;;8.30;;
72406;SDS011;60396;47.550;18.828;2022-10-12T11:34:54;18.23;;;8.23;;
72406;SDS011;60396;47.550;18.828;2022-10-12T11:40:07;16.85;;;8.18;;
72406;SDS011;60396;47.550;18.828;2022-10-12T12:19:50;21.17;;;7.97;;
72406;SDS011;60396;47.550;18.828;2022-10-12T12:22:29;16.40;;;7.50;;
72406;SDS011;60396;47.550;18.828;2022-10-12T12:43:58;15.43;;;7.70;;
72406;SDS011;60396;47.550;18.828;2022-10-12T12:47:13;16.23;;;7.85;;
72406;SDS011;60396;47.550;18.828;2022-10-12T12:52:43;16.02;;;7.85;;
72406;SDS011;60396;47.550;18.828;2022-10-12T13:21:19;14.20;;;6.72;;
72406;SDS011;60396;47.550;18.828;2022-10-12T13:23:49;15.15;;;7.22;;
72406;SDS011;60396;47.550;18.828;2022-10-12T13:26:21;17.73;;;7.23;;
72406;SDS011;60396;47.550;18.828;2022-10-12T13:28:52;13.65;;;7.07;;
72406;SDS011;60396;47.550;18.828;2022-10-12T13:31:26;18.80;;;7.07;;
72406;SDS011;60396;47.550;18.828;2022-10-12T13:37:01;16.73;;;7.07;;
72406;SDS011;60396;47.550;18.828;2022-10-12T13:39:36;15.53;;;6.83;;
72406;SDS011;60396;47.550;18.828;2022-10-12T13:42:05;14.60;;;7.05;;
72406;SDS011;60396;47.550;18.828;2022-10-12T13:44:33;21.20;;;6.70;;
72406;SDS011;60396;47.550;18.828;2022-10-12T13:49:51;20.08;;;6.72;;
72406;SDS011;60396;47.550;18.828;2022-10-12T13:54:59;15.48;;;7.40;;
72406;SDS011;60396;47.550;18.828;2022-10-12T13:57:29;21.98;;;7.60;;
72406;SDS011;60396;47.550;18.828;2022-10-12T14:02:42;12.88;;;7.20;;
72406;SDS011;60396;47.550;18.828;2022-10-12T14:05:22;14.50;;;6.80;;
72406;SDS011;60396;47.550;18.828;2022-10-12T14:07:51;17.65;;;7.18;;
72406;SDS011;60396;47.550;18.828;2022-10-12T14:10:32;16.30;;;7.00;;
72406;SDS011;60396;47.550;18.828;2022-10-12T14:13:02;19.50;;;7.55;;
72406;SDS011;60396;47.550;18.828;2022-10-12T14:15:32;22.13;;;7.28;;
72406;SDS011;60396;47.550;18.828;2022-10-12T14:18:02;13.00;;;6.43;;
72406;SDS011;60396;47.550;18.828;2022-10-12T14:20:32;17.52;;;7.03;;
72406;SDS011;60396;47.550;18.828;2022-10-12T14:23:09;14.02;;;6.75;;
72406;SDS011;60396;47.550;18.828;2022-10-12T14:25:52;19.90;;;7.25;;
72406;SDS011;60396;47.550;18.828;2022-10-12T14:28:31;17.08;;;7.37;;
72406;SDS011;60396;47.550;18.828;2022-10-12T14:31:01;16.30;;;6.67;;
72406;SDS011;60396;47.550;18.828;2022-10-12T14:33:29;16.85;;;6.43;;
72406;SDS011;60396;47.550;18.828;2022-10-12T14:38:42;28.75;;;7.10;;
72406;SDS011;60396;47.550;18.828;2022-10-12T14:46:41;16.87;;;6.35;;
72406;SDS011;60396;47.550;18.828;2022-10-12T14:49:17;17.80;;;7.03;;
72406;SDS011;60396;47.550;18.828;2022-10-12T14:51:47;16.25;;;6.80;;
72406;SDS011;60396;47.550;18.828;2022-10-12T14:54:16;17.35;;;6.57;;
72406;SDS011;60396;47.550;18.828;2022-10-12T14:56:43;15.37;;;6.73;;
72406;SDS011;60396;47.550;18.828;2022-10-12T14:59:11;18.23;;;6.57;;
72406;SDS011;60396;47.550;18.828;2022-10-12T15:01:39;13.45;;;6.20;;
72406;SDS011;60396;47.550;18.828;2022-10-12T15:04:12;14.90;;;6.62;;
72406;SDS011;60396;47.550;18.828;2022-10-12T15:06:40;13.93;;;6.15;;
72406;SDS011;60396;47.550;18.828;2022-10-12T15:09:07;13.67;;;6.67;;
72406;SDS011;60396;47.550;18.828;2022-10-12T15:11:35;13.48;;;6.57;;
72406;SDS011;60396;47.550;18.828;2022-10-12T15:14:02;11.93;;;5.80;;
72406;SDS011;60396;47.550;18.828;2022-10-12T15:16:30;19.45;;;6.78;;
72406;SDS011;60396;47.550;18.828;2022-10-12T15:18:59;15.43;;;6.15;;
72406;SDS011;60396;47.550;18.828;2022-10-12T15:21:26;11.83;;;5.93;;
72406;SDS011;60396;47.550;18.828;2022-10-12T15:23:54;13.23;;;6.75;;
72406;SDS011;60396;47.550;18.828;2022-10-12T15:26:23;20.05;;;6.78;;
72406;SDS011;60396;47.550;18.828;2022-10-12T15:28:50;12.35;;;6.10;;
72406;SDS011;60396;47.550;18.828;2022-10-12T15:31:18;18.08;;;6.90;;
72406;SDS011;60396;47.550;18.828;2022-10-12T15:33:46;27.23;;;6.67;;
72406;SDS011;60396;47.550;18.828;2022-10-12T15:36:15;27.40;;;6.18;;
72406;SDS011;60396;47.550;18.828;2022-10-12T15:38:42;18.73;;;6.12;;
72406;SDS011;60396;47.550;18.828;2022-10-12T15:41:13;14.10;;;6.37;;
72406;SDS011;60396;47.550;18.828;2022-10-12T15:43:43;15.00;;;6.10;;
72406;SDS011;60396;47.550;18.828;2022-10-12T15:46:10;17.37;;;6.37;;
72406;SDS011;60396;47.550;18.828;2022-10-12T15:48:38;17.17;;;5.90;;
72406;SDS011;60396;47.550;18.828;2022-10-12T15:51:08;31.73;;;7.40;;
72406;SDS011;60396;47.550;18.828;2022-10-12T15:53:42;28.10;;;6.75;;
72406;SDS011;60396;47.550;18.828;2022-10-12T15:56:12;15.20;;;6.18;;
72406;SDS011;60396;47.550;18.828;2022-10-12T15:58:40;13.97;;;5.30;;
72406;SDS011;60396;47.550;18.828;2022-10-12T16:01:11;19.52;;;6.37;;
72406;SDS011;60396;47.550;18.828;2022-10-12T16:03:40;20.90;;;6.80;;
72406;SDS011;60396;47.550;18.828;2022-10-12T16:06:08;15.00;;;6.62;;
72406;SDS011;60396;47.550;18.828;2022-10-12T16:08:36;14.60;;;6.12;;
72406;SDS011;60396;47.550;18.828;2022-10-12T16:11:05;19.47;;;7.00;;
72406;SDS011;60396;47.550;18.828;2022-10-12T16:13:34;18.80;;;6.85;;
72406;SDS011;60396;47.550;18.828;2022-10-12T16:16:09;21.45;;;6.72;;
72406;SDS011;60396;47.550;18.828;2022-10-12T16:18:37;15.10;;;6.28;;
72406;SDS011;60396;47.550;18.828;2022-10-12T16:21:04;18.73;;;7.10;;
72406;SDS011;60396;47.550;18.828;2022-10-12T16:23:33;12.83;;;6.17;;
72406;SDS011;60396;47.550;18.828;2022-10-12T16:26:03;17.60;;;6.53;;
72406;SDS011;60396;47.550;18.828;2022-10-12T16:28:32;14.40;;;6.30;;
72406;SDS011;60396;47.550;18.828;2022-10-12T16:31:00;15.65;;;6.65;;
72406;SDS011;60396;47.550;18.828;2022-10-12T16:33:28;19.67;;;6.62;;
72406;SDS011;60396;47.550;18.828;2022-10-12T16:35:56;17.07;;;6.40;;
72406;SDS011;60396;47.550;18.828;2022-10-12T16:38:23;12.95;;;6.43;;
72406;SDS011;60396;47.550;18.828;2022-10-12T16:40:51;13.30;;;6.68;;
72406;SDS011;60396;47.550;18.828;2022-10-12T16:43:19;14.05;;;6.40;;
72406;SDS011;60396;47.550;18.828;2022-10-12T16:45:53;12.85;;;5.90;;
72406;SDS011;60396;47.550;18.828;2022-10-12T16:48:21;12.50;;;6.23;;
72406;SDS011;60396;47.550;18.828;2022-10-12T16:50:49;13.48;;;6.32;;
72406;SDS011;60396;47.550;18.828;2022-10-12T16:53:16;13.52;;;6.35;;
72406;SDS011;60396;47.550;18.828;2022-10-12T16:55:44;17.08;;;5.68;;
72406;SDS011;60396;47.550;18.828;2022-10-12T16:58:12;14.40;;;6.50;;
72406;SDS011;60396;47.550;18.828;2022-10-12T17:00:39;20.80;;;6.57;;
72406;SDS011;60396;47.550;18.828;2022-10-12T17:03:08;12.18;;;6.10;;
72406;SDS011;60396;47.550;18.828;2022-10-12T17:05:40;13.25;;;5.78;;
72406;SDS011;60396;47.550;18.828;2022-10-12T17:08:08;14.77;;;6.00;;
72406;SDS011;60396;47.550;18.828;2022-10-12T17:10:42;12.65;;;5.82;;
72406;SDS011;60396;47.550;18.828;2022-10-12T17:13:10;14.37;;;6.70;;
72406;SDS011;60396;47.550;18.828;2022-10-12T17:15:40;12.05;;;6.05;;
72406;SDS011;60396;47.550;18.828;2022-10-12T17:18:07;15.95;;;6.53;;
72406;SDS011;60396;47.550;18.828;2022-10-12T17:20:35;11.27;;;5.90;;